sensor_id;sensor_type;location;lat;lon;timestamp;P1;durP1;ratioP1;P2;durP2;ratioP2
8086;SDS011;4086;54.412;9.980;2022-08-19T00:02:05;12.80;;;10.23;;
8086;SDS011;4086;54.412;9.980;2022-08-19T00:04:32;14.33;;;10.97;;
8086;SDS011;4086;54.412;9.980;2022-08-19T00:07:01;12.00;;;10.70;;
8086;SDS011;4086;54.412;9.980;2022-08-19T00:09:28;15.40;;;10.83;;
8086;SDS011;4086;54.412;9.980;2022-08-19T00:11:57;14.40;;;10.50;;
8086;SDS011;4086;54.412;9.980;2022-08-19T00:14:24;14.00;;;9.73;;
8086;SDS011;4086;54.412;9.980;2022-08-19T00:16:52;14.97;;;10.67;;
8086;SDS011;4086;54.412;9.980;2022-08-19T00:19:19;13.30;;;10.13;;
8086;SDS011;4086;54.412;9.980;2022-08-19T00:21:46;12.70;;;10.30;;
8086;SDS011;4086;54.412;9.980;2022-08-19T00:24:13;14.57;;;10.07;;
8086;SDS011;4086;54.412;9.980;2022-08-19T00:26:41;12.83;;;10.07;;
8086;SDS011;4086;54.412;9.980;2022-08-19T00:29:10;12.63;;;10.67;;
8086;SDS011;4086;54.412;9.980;2022-08-19T00:31:39;17.73;;;11.00;;
8086;SDS011;4086;54.412;9.980;2022-08-19T00:34:06;13.37;;;10.23;;
8086;SDS011;4086;54.412;9.980;2022-08-19T00:36:33;16.47;;;10.90;;
8086;SDS011;4086;54.412;9.980;2022-08-19T00:38:59;16.13;;;11.27;;
8086;SDS011;4086;54.412;9.980;2022-08-19T00:41:26;12.80;;;10.13;;
8086;SDS011;4086;54.412;9.980;2022-08-19T00:43:57;12.70;;;11.33;;
8086;SDS011;4086;54.412;9.980;2022-08-19T00:46:26;15.73;;;11.77;;
8086;SDS011;4086;54.412;9.980;2022-08-19T00:48:52;15.10;;;11.73;;
8086;SDS011;4086;54.412;9.980;2022-08-19T00:51:19;15.23;;;11.03;;
8086;SDS011;4086;54.412;9.980;2022-08-19T00:53:46;13.67;;;10.60;;
8086;SDS011;4086;54.412;9.980;2022-08-19T00:56:12;13.47;;;10.90;;
8086;SDS011;4086;54.412;9.980;2022-08-19T00:58:40;17.07;;;11.37;;
8086;SDS011;4086;54.412;9.980;2022-08-19T01:01:07;14.47;;;12.00;;
8086;SDS011;4086;54.412;9.980;2022-08-19T01:03:35;14.00;;;11.17;;
8086;SDS011;4086;54.412;9.980;2022-08-19T01:06:01;15.13;;;11.27;;
8086;SDS011;4086;54.412;9.980;2022-08-19T01:08:28;15.83;;;11.00;;
8086;SDS011;4086;54.412;9.980;2022-08-19T01:10:55;14.63;;;11.10;;
8086;SDS011;4086;54.412;9.980;2022-08-19T01:13:23;12.93;;;11.00;;
8086;SDS011;4086;54.412;9.980;2022-08-19T01:15:52;11.83;;;10.43;;
8086;SDS011;4086;54.412;9.980;2022-08-19T01:18:21;13.87;;;10.47;;
8086;SDS011;4086;54.412;9.980;2022-08-19T01:20:49;16.47;;;11.50;;
8086;SDS011;4086;54.412;9.980;2022-08-19T01:23:18;16.10;;;11.80;;
8086;SDS011;4086;54.412;9.980;2022-08-19T01:25:46;12.77;;;10.63;;
8086;SDS011;4086;54.412;9.980;2022-08-19T01:28:14;12.87;;;10.57;;
8086;SDS011;4086;54.412;9.980;2022-08-19T01:30:43;14.37;;;11.63;;
8086;SDS011;4086;54.412;9.980;2022-08-19T01:33:09;16.87;;;12.20;;
8086;SDS011;4086;54.412;9.980;2022-08-19T01:35:36;16.57;;;11.43;;
8086;SDS011;4086;54.412;9.980;2022-08-19T01:38:05;13.27;;;10.67;;
8086;SDS011;4086;54.412;9.980;2022-08-19T01:40:35;15.77;;;11.10;;
8086;SDS011;4086;54.412;9.980;2022-08-19T01:43:03;16.17;;;12.17;;
8086;SDS011;4086;54.412;9.980;2022-08-19T01:45:31;17.00;;;12.93;;
8086;SDS011;4086;54.412;9.980;2022-08-19T01:47:59;14.23;;;11.67;;
8086;SDS011;4086;54.412;9.980;2022-08-19T01:50:25;16.57;;;11.50;;
8086;SDS011;4086;54.412;9.980;2022-08-19T01:52:52;15.50;;;11.23;;
8086;SDS011;4086;54.412;9.980;2022-08-19T01:55:20;16.53;;;12.03;;
8086;SDS011;4086;54.412;9.980;2022-08-19T01:57:50;19.17;;;13.07;;
8086;SDS011;4086;54.412;9.980;2022-08-19T02:00:21;16.07;;;12.27;;
8086;SDS011;4086;54.412;9.980;2022-08-19T02:02:48;14.13;;;11.73;;
8086;SDS011;4086;54.412;9.980;2022-08-19T02:05:15;14.20;;;12.33;;
8086;SDS011;4086;54.412;9.980;2022-08-19T02:07:43;13.50;;;11.60;;
8086;SDS011;4086;54.412;9.980;2022-08-19T02:10:12;13.23;;;10.53;;
8086;SDS011;4086;54.412;9.980;2022-08-19T02:12:39;18.93;;;12.43;;
8086;SDS011;4086;54.412;9.980;2022-08-19T02:15:08;18.37;;;13.07;;
8086;SDS011;4086;54.412;9.980;2022-08-19T02:17:34;15.93;;;11.10;;
8086;SDS011;4086;54.412;9.980;2022-08-19T02:20:01;15.63;;;12.30;;
8086;SDS011;4086;54.412;9.980;2022-08-19T02:22:29;16.40;;;11.53;;
8086;SDS011;4086;54.412;9.980;2022-08-19T02:24:55;17.30;;;12.73;;
8086;SDS011;4086;54.412;9.980;2022-08-19T02:27:22;18.97;;;12.43;;
8086;SDS011;4086;54.412;9.980;2022-08-19T02:29:49;18.20;;;12.33;;
8086;SDS011;4086;54.412;9.980;2022-08-19T02:32:18;13.90;;;11.97;;
8086;SDS011;4086;54.412;9.980;2022-08-19T02:34:44;15.87;;;11.87;;
8086;SDS011;4086;54.412;9.980;2022-08-19T02:40:33;15.03;;;11.87;;
8086;SDS011;4086;54.412;9.980;2022-08-19T02:43:00;18.40;;;12.70;;
8086;SDS011;4086;54.412;9.980;2022-08-19T02:45:27;14.63;;;11.50;;
8086;SDS011;4086;54.412;9.980;2022-08-19T02:47:58;15.47;;;12.00;;
8086;SDS011;4086;54.412;9.980;2022-08-19T02:50:24;15.90;;;13.00;;
8086;SDS011;4086;54.412;9.980;2022-08-19T02:52:51;18.73;;;12.90;;
8086;SDS011;4086;54.412;9.980;2022-08-19T02:55:17;13.77;;;10.93;;
8086;SDS011;4086;54.412;9.980;2022-08-19T02:57:45;16.23;;;11.33;;
8086;SDS011;4086;54.412;9.980;2022-08-19T03:00:12;17.13;;;12.87;;
8086;SDS011;4086;54.412;9.980;2022-08-19T03:02:39;14.27;;;11.47;;
8086;SDS011;4086;54.412;9.980;2022-08-19T03:05:09;24.07;;;12.77;;
8086;SDS011;4086;54.412;9.980;2022-08-19T03:07:36;15.07;;;12.23;;
8086;SDS011;4086;54.412;9.980;2022-08-19T03:10:03;17.67;;;13.27;;
8086;SDS011;4086;54.412;9.980;2022-08-19T03:12:30;20.30;;;12.30;;
8086;SDS011;4086;54.412;9.980;2022-08-19T03:14:57;16.20;;;12.30;;
8086;SDS011;4086;54.412;9.980;2022-08-19T03:17:23;16.87;;;12.40;;
8086;SDS011;4086;54.412;9.980;2022-08-19T03:19:50;16.70;;;12.23;;
8086;SDS011;4086;54.412;9.980;2022-08-19T03:22:17;19.57;;;13.40;;
8086;SDS011;4086;54.412;9.980;2022-08-19T03:24:44;19.93;;;12.40;;
8086;SDS011;4086;54.412;9.980;2022-08-19T03:27:10;13.33;;;10.47;;
8086;SDS011;4086;54.412;9.980;2022-08-19T03:29:37;12.63;;;11.00;;
8086;SDS011;4086;54.412;9.980;2022-08-19T03:32:07;17.23;;;11.50;;
8086;SDS011;4086;54.412;9.980;2022-08-19T03:34:34;16.93;;;12.00;;
8086;SDS011;4086;54.412;9.980;2022-08-19T03:37:04;17.07;;;12.83;;
8086;SDS011;4086;54.412;9.980;2022-08-19T03:39:33;14.90;;;11.10;;
8086;SDS011;4086;54.412;9.980;2022-08-19T03:42:01;14.97;;;12.07;;
8086;SDS011;4086;54.412;9.980;2022-08-19T03:44:28;10.43;;;9.23;;
8086;SDS011;4086;54.412;9.980;2022-08-19T03:46:58;13.90;;;10.57;;
8086;SDS011;4086;54.412;9.980;2022-08-19T03:49:26;16.17;;;11.20;;
8086;SDS011;4086;54.412;9.980;2022-08-19T03:51:54;15.70;;;11.87;;
8086;SDS011;4086;54.412;9.980;2022-08-19T03:54:23;14.87;;;10.90;;
8086;SDS011;4086;54.412;9.980;2022-08-19T03:56:52;16.00;;;11.53;;
8086;SDS011;4086;54.412;9.980;2022-08-19T03:59:20;18.63;;;11.17;;
8086;SDS011;4086;54.412;9.980;2022-08-19T04:01:50;14.53;;;11.67;;
8086;SDS011;4086;54.412;9.980;2022-08-19T04:04:16;12.93;;;10.33;;
8086;SDS011;4086;54.412;9.980;2022-08-19T04:06:42;12.93;;;11.10;;
8086;SDS011;4086;54.412;9.980;2022-08-19T04:09:10;15.20;;;10.33;;
8086;SDS011;4086;54.412;9.980;2022-08-19T04:11:38;14.60;;;12.20;;
8086;SDS011;4086;54.412;9.980;2022-08-19T04:14:08;18.07;;;12.60;;
8086;SDS011;4086;54.412;9.980;2022-08-19T04:16:35;12.53;;;9.97;;
8086;SDS011;4086;54.412;9.980;2022-08-19T04:19:02;17.97;;;12.23;;
8086;SDS011;4086;54.412;9.980;2022-08-19T04:21:29;12.93;;;9.93;;
8086;SDS011;4086;54.412;9.980;2022-08-19T04:23:56;12.30;;;10.60;;
8086;SDS011;4086;54.412;9.980;2022-08-19T04:26:24;15.43;;;12.37;;
8086;SDS011;4086;54.412;9.980;2022-08-19T04:28:52;17.07;;;12.57;;
8086;SDS011;4086;54.412;9.980;2022-08-19T04:31:22;17.03;;;12.00;;
8086;SDS011;4086;54.412;9.980;2022-08-19T04:33:50;19.70;;;12.43;;
8086;SDS011;4086;54.412;9.980;2022-08-19T04:36:18;16.10;;;12.90;;
8086;SDS011;4086;54.412;9.980;2022-08-19T04:38:46;20.20;;;12.67;;
8086;SDS011;4086;54.412;9.980;2022-08-19T04:41:13;13.57;;;12.17;;
8086;SDS011;4086;54.412;9.980;2022-08-19T04:43:57;17.83;;;12.53;;
8086;SDS011;4086;54.412;9.980;2022-08-19T04:46:24;17.43;;;11.83;;
8086;SDS011;4086;54.412;9.980;2022-08-19T04:48:51;17.27;;;12.83;;
8086;SDS011;4086;54.412;9.980;2022-08-19T04:51:18;14.60;;;12.73;;
8086;SDS011;4086;54.412;9.980;2022-08-19T04:53:45;17.60;;;12.50;;
8086;SDS011;4086;54.412;9.980;2022-08-19T04:56:13;15.77;;;10.80;;
8086;SDS011;4086;54.412;9.980;2022-08-19T04:58:42;19.87;;;13.43;;
8086;SDS011;4086;54.412;9.980;2022-08-19T05:01:11;21.53;;;12.97;;
8086;SDS011;4086;54.412;9.980;2022-08-19T05:03:39;14.60;;;12.60;;
8086;SDS011;4086;54.412;9.980;2022-08-19T05:06:06;17.73;;;12.90;;
8086;SDS011;4086;54.412;9.980;2022-08-19T05:08:35;16.80;;;11.87;;
8086;SDS011;4086;54.412;9.980;2022-08-19T05:11:07;21.57;;;12.83;;
8086;SDS011;4086;54.412;9.980;2022-08-19T05:13:34;19.97;;;12.80;;
8086;SDS011;4086;54.412;9.980;2022-08-19T05:16:00;18.80;;;13.23;;
8086;SDS011;4086;54.412;9.980;2022-08-19T05:18:27;21.60;;;14.13;;
8086;SDS011;4086;54.412;9.980;2022-08-19T05:21:13;21.53;;;12.63;;
8086;SDS011;4086;54.412;9.980;2022-08-19T05:23:58;19.20;;;12.80;;
8086;SDS011;4086;54.412;9.980;2022-08-19T05:26:24;18.13;;;12.50;;
8086;SDS011;4086;54.412;9.980;2022-08-19T05:28:51;14.57;;;10.93;;
8086;SDS011;4086;54.412;9.980;2022-08-19T05:31:17;17.40;;;11.60;;
8086;SDS011;4086;54.412;9.980;2022-08-19T05:33:44;20.07;;;13.87;;
8086;SDS011;4086;54.412;9.980;2022-08-19T05:36:10;20.40;;;13.37;;
8086;SDS011;4086;54.412;9.980;2022-08-19T05:38:38;17.50;;;12.93;;
8086;SDS011;4086;54.412;9.980;2022-08-19T05:41:07;19.77;;;13.67;;
8086;SDS011;4086;54.412;9.980;2022-08-19T05:46:55;24.93;;;12.77;;
8086;SDS011;4086;54.412;9.980;2022-08-19T05:49:23;17.17;;;11.17;;
8086;SDS011;4086;54.412;9.980;2022-08-19T05:51:52;17.13;;;12.27;;
8086;SDS011;4086;54.412;9.980;2022-08-19T05:54:20;14.07;;;10.67;;
8086;SDS011;4086;54.412;9.980;2022-08-19T05:56:48;20.57;;;14.40;;
8086;SDS011;4086;54.412;9.980;2022-08-19T05:59:16;19.93;;;13.07;;
8086;SDS011;4086;54.412;9.980;2022-08-19T06:01:43;19.83;;;12.30;;
8086;SDS011;4086;54.412;9.980;2022-08-19T06:04:11;20.67;;;13.33;;
8086;SDS011;4086;54.412;9.980;2022-08-19T06:06:39;21.40;;;14.63;;
8086;SDS011;4086;54.412;9.980;2022-08-19T06:09:07;19.60;;;14.87;;
8086;SDS011;4086;54.412;9.980;2022-08-19T06:11:35;18.07;;;12.53;;
8086;SDS011;4086;54.412;9.980;2022-08-19T06:14:04;19.80;;;14.60;;
8086;SDS011;4086;54.412;9.980;2022-08-19T06:16:33;21.10;;;14.53;;
8086;SDS011;4086;54.412;9.980;2022-08-19T06:19:00;21.30;;;14.67;;
8086;SDS011;4086;54.412;9.980;2022-08-19T06:21:27;19.13;;;13.57;;
8086;SDS011;4086;54.412;9.980;2022-08-19T06:23:55;17.50;;;13.77;;
8086;SDS011;4086;54.412;9.980;2022-08-19T06:26:24;22.03;;;14.13;;
8086;SDS011;4086;54.412;9.980;2022-08-19T06:28:51;18.97;;;14.30;;
8086;SDS011;4086;54.412;9.980;2022-08-19T06:31:19;17.27;;;12.73;;
8086;SDS011;4086;54.412;9.980;2022-08-19T06:33:48;24.27;;;14.47;;
8086;SDS011;4086;54.412;9.980;2022-08-19T06:36:16;18.50;;;12.33;;
8086;SDS011;4086;54.412;9.980;2022-08-19T06:38:44;25.17;;;15.60;;
8086;SDS011;4086;54.412;9.980;2022-08-19T06:41:10;19.13;;;14.53;;
8086;SDS011;4086;54.412;9.980;2022-08-19T06:43:38;17.10;;;12.67;;
8086;SDS011;4086;54.412;9.980;2022-08-19T06:46:09;20.70;;;15.10;;
8086;SDS011;4086;54.412;9.980;2022-08-19T06:48:37;21.10;;;15.97;;
8086;SDS011;4086;54.412;9.980;2022-08-19T06:51:04;22.53;;;16.47;;
8086;SDS011;4086;54.412;9.980;2022-08-19T06:53:31;18.00;;;13.50;;
8086;SDS011;4086;54.412;9.980;2022-08-19T06:55:57;21.97;;;16.03;;
8086;SDS011;4086;54.412;9.980;2022-08-19T06:58:27;19.50;;;16.20;;
8086;SDS011;4086;54.412;9.980;2022-08-19T07:00:58;25.03;;;15.73;;
8086;SDS011;4086;54.412;9.980;2022-08-19T07:03:26;17.53;;;14.43;;
8086;SDS011;4086;54.412;9.980;2022-08-19T07:05:53;22.53;;;15.93;;
8086;SDS011;4086;54.412;9.980;2022-08-19T07:08:20;18.20;;;14.20;;
8086;SDS011;4086;54.412;9.980;2022-08-19T07:10:46;21.77;;;16.13;;
8086;SDS011;4086;54.412;9.980;2022-08-19T07:13:14;22.03;;;15.90;;
8086;SDS011;4086;54.412;9.980;2022-08-19T07:15:40;22.03;;;15.43;;
8086;SDS011;4086;54.412;9.980;2022-08-19T07:18:08;20.77;;;16.67;;
8086;SDS011;4086;54.412;9.980;2022-08-19T07:20:35;23.80;;;16.97;;
8086;SDS011;4086;54.412;9.980;2022-08-19T07:23:02;25.00;;;16.50;;
8086;SDS011;4086;54.412;9.980;2022-08-19T07:25:28;21.50;;;16.40;;
8086;SDS011;4086;54.412;9.980;2022-08-19T07:27:54;24.20;;;16.17;;
8086;SDS011;4086;54.412;9.980;2022-08-19T07:30:21;26.77;;;17.03;;
8086;SDS011;4086;54.412;9.980;2022-08-19T07:32:49;21.87;;;16.70;;
8086;SDS011;4086;54.412;9.980;2022-08-19T07:35:17;22.17;;;17.07;;
8086;SDS011;4086;54.412;9.980;2022-08-19T07:37:45;21.27;;;17.03;;
8086;SDS011;4086;54.412;9.980;2022-08-19T07:40:12;21.10;;;16.07;;
8086;SDS011;4086;54.412;9.980;2022-08-19T07:42:38;21.83;;;16.73;;
8086;SDS011;4086;54.412;9.980;2022-08-19T07:45:06;25.73;;;17.07;;
8086;SDS011;4086;54.412;9.980;2022-08-19T07:47:33;18.10;;;14.97;;
8086;SDS011;4086;54.412;9.980;2022-08-19T07:49:59;21.60;;;16.00;;
8086;SDS011;4086;54.412;9.980;2022-08-19T07:52:27;24.73;;;16.87;;
8086;SDS011;4086;54.412;9.980;2022-08-19T07:54:53;22.83;;;17.97;;
8086;SDS011;4086;54.412;9.980;2022-08-19T07:57:20;22.43;;;17.50;;
8086;SDS011;4086;54.412;9.980;2022-08-19T07:59:46;21.23;;;17.50;;
8086;SDS011;4086;54.412;9.980;2022-08-19T08:02:13;23.77;;;17.50;;
8086;SDS011;4086;54.412;9.980;2022-08-19T08:04:39;19.27;;;15.93;;
8086;SDS011;4086;54.412;9.980;2022-08-19T08:07:23;21.73;;;16.53;;
8086;SDS011;4086;54.412;9.980;2022-08-19T08:10:09;21.23;;;16.30;;
8086;SDS011;4086;54.412;9.980;2022-08-19T08:12:36;21.23;;;17.10;;
8086;SDS011;4086;54.412;9.980;2022-08-19T08:15:06;22.23;;;17.50;;
8086;SDS011;4086;54.412;9.980;2022-08-19T08:17:34;20.77;;;16.47;;
8086;SDS011;4086;54.412;9.980;2022-08-19T08:20:01;21.33;;;16.80;;
8086;SDS011;4086;54.412;9.980;2022-08-19T08:22:31;18.13;;;15.20;;
8086;SDS011;4086;54.412;9.980;2022-08-19T08:25:18;25.57;;;18.87;;
8086;SDS011;4086;54.412;9.980;2022-08-19T08:27:47;26.83;;;19.30;;
8086;SDS011;4086;54.412;9.980;2022-08-19T08:30:16;28.60;;;19.57;;
8086;SDS011;4086;54.412;9.980;2022-08-19T08:32:44;31.53;;;22.30;;
8086;SDS011;4086;54.412;9.980;2022-08-19T08:35:11;31.30;;;21.30;;
8086;SDS011;4086;54.412;9.980;2022-08-19T08:37:38;28.70;;;20.10;;
8086;SDS011;4086;54.412;9.980;2022-08-19T08:40:05;24.53;;;18.90;;
8086;SDS011;4086;54.412;9.980;2022-08-19T08:42:46;28.53;;;20.83;;
8086;SDS011;4086;54.412;9.980;2022-08-19T08:45:16;28.57;;;19.83;;
8086;SDS011;4086;54.412;9.980;2022-08-19T08:47:44;30.03;;;21.27;;
8086;SDS011;4086;54.412;9.980;2022-08-19T08:50:13;29.53;;;19.90;;
8086;SDS011;4086;54.412;9.980;2022-08-19T08:52:43;31.03;;;22.23;;
8086;SDS011;4086;54.412;9.980;2022-08-19T08:55:12;30.57;;;20.77;;
8086;SDS011;4086;54.412;9.980;2022-08-19T08:57:44;33.33;;;20.50;;
8086;SDS011;4086;54.412;9.980;2022-08-19T09:00:21;30.50;;;21.33;;
8086;SDS011;4086;54.412;9.980;2022-08-19T09:02:51;34.83;;;21.67;;
8086;SDS011;4086;54.412;9.980;2022-08-19T09:05:18;29.53;;;21.63;;
8086;SDS011;4086;54.412;9.980;2022-08-19T09:07:47;31.97;;;22.23;;
8086;SDS011;4086;54.412;9.980;2022-08-19T09:10:19;27.30;;;19.40;;
8086;SDS011;4086;54.412;9.980;2022-08-19T09:12:52;27.83;;;19.63;;
8086;SDS011;4086;54.412;9.980;2022-08-19T09:15:25;28.60;;;20.80;;
8086;SDS011;4086;54.412;9.980;2022-08-19T09:17:58;26.07;;;19.13;;
8086;SDS011;4086;54.412;9.980;2022-08-19T09:20:26;27.87;;;20.33;;
8086;SDS011;4086;54.412;9.980;2022-08-19T09:22:53;26.40;;;18.93;;
8086;SDS011;4086;54.412;9.980;2022-08-19T09:25:20;29.00;;;20.87;;
8086;SDS011;4086;54.412;9.980;2022-08-19T09:27:47;29.73;;;20.37;;
8086;SDS011;4086;54.412;9.980;2022-08-19T09:30:16;27.83;;;19.27;;
8086;SDS011;4086;54.412;9.980;2022-08-19T09:32:46;32.03;;;19.73;;
8086;SDS011;4086;54.412;9.980;2022-08-19T09:35:12;26.30;;;19.03;;
8086;SDS011;4086;54.412;9.980;2022-08-19T09:37:39;26.53;;;18.93;;
8086;SDS011;4086;54.412;9.980;2022-08-19T09:40:08;26.40;;;17.87;;
8086;SDS011;4086;54.412;9.980;2022-08-19T09:42:36;23.43;;;17.47;;
8086;SDS011;4086;54.412;9.980;2022-08-19T09:45:02;23.43;;;17.50;;
8086;SDS011;4086;54.412;9.980;2022-08-19T09:47:31;25.27;;;18.23;;
8086;SDS011;4086;54.412;9.980;2022-08-19T09:50:01;26.70;;;18.53;;
8086;SDS011;4086;54.412;9.980;2022-08-19T09:52:27;23.87;;;18.30;;
8086;SDS011;4086;54.412;9.980;2022-08-19T09:54:53;24.97;;;16.20;;
8086;SDS011;4086;54.412;9.980;2022-08-19T09:57:21;24.13;;;17.77;;
8086;SDS011;4086;54.412;9.980;2022-08-19T09:59:47;26.10;;;18.60;;
8086;SDS011;4086;54.412;9.980;2022-08-19T10:02:14;24.77;;;17.67;;
8086;SDS011;4086;54.412;9.980;2022-08-19T10:04:41;24.17;;;18.30;;
8086;SDS011;4086;54.412;9.980;2022-08-19T10:07:26;25.97;;;18.50;;
8086;SDS011;4086;54.412;9.980;2022-08-19T10:09:52;21.03;;;16.37;;
8086;SDS011;4086;54.412;9.980;2022-08-19T10:12:19;24.00;;;17.40;;
8086;SDS011;4086;54.412;9.980;2022-08-19T10:14:45;26.23;;;17.60;;
8086;SDS011;4086;54.412;9.980;2022-08-19T10:17:12;25.70;;;17.40;;
8086;SDS011;4086;54.412;9.980;2022-08-19T10:19:38;20.70;;;15.73;;
8086;SDS011;4086;54.412;9.980;2022-08-19T10:22:06;25.70;;;18.17;;
8086;SDS011;4086;54.412;9.980;2022-08-19T10:24:33;22.80;;;17.47;;
8086;SDS011;4086;54.412;9.980;2022-08-19T10:27:00;27.93;;;18.77;;
8086;SDS011;4086;54.412;9.980;2022-08-19T10:29:28;26.93;;;18.40;;
8086;SDS011;4086;54.412;9.980;2022-08-19T10:31:54;23.60;;;17.07;;
8086;SDS011;4086;54.412;9.980;2022-08-19T10:34:23;25.80;;;17.80;;
8086;SDS011;4086;54.412;9.980;2022-08-19T10:36:50;25.20;;;17.33;;
8086;SDS011;4086;54.412;9.980;2022-08-19T10:39:17;26.70;;;18.13;;
8086;SDS011;4086;54.412;9.980;2022-08-19T10:41:44;27.90;;;18.03;;
8086;SDS011;4086;54.412;9.980;2022-08-19T10:44:11;27.57;;;17.73;;
8086;SDS011;4086;54.412;9.980;2022-08-19T10:46:39;25.43;;;17.43;;
8086;SDS011;4086;54.412;9.980;2022-08-19T10:49:07;25.50;;;17.37;;
8086;SDS011;4086;54.412;9.980;2022-08-19T10:51:34;30.17;;;18.17;;
8086;SDS011;4086;54.412;9.980;2022-08-19T10:54:20;23.47;;;16.50;;
8086;SDS011;4086;54.412;9.980;2022-08-19T10:56:46;24.77;;;17.33;;
8086;SDS011;4086;54.412;9.980;2022-08-19T10:59:18;24.53;;;17.57;;
8086;SDS011;4086;54.412;9.980;2022-08-19T11:01:47;26.27;;;18.47;;
8086;SDS011;4086;54.412;9.980;2022-08-19T11:04:14;28.17;;;18.80;;
8086;SDS011;4086;54.412;9.980;2022-08-19T11:06:42;25.77;;;17.13;;
8086;SDS011;4086;54.412;9.980;2022-08-19T11:09:10;27.70;;;18.17;;
8086;SDS011;4086;54.412;9.980;2022-08-19T11:11:38;26.00;;;18.00;;
8086;SDS011;4086;54.412;9.980;2022-08-19T11:14:05;26.10;;;16.57;;
8086;SDS011;4086;54.412;9.980;2022-08-19T11:16:32;31.30;;;16.87;;
8086;SDS011;4086;54.412;9.980;2022-08-19T11:18:59;24.33;;;16.47;;
8086;SDS011;4086;54.412;9.980;2022-08-19T11:21:27;27.17;;;16.67;;
8086;SDS011;4086;54.412;9.980;2022-08-19T11:23:56;27.03;;;18.37;;
8086;SDS011;4086;54.412;9.980;2022-08-19T11:26:25;27.50;;;16.97;;
8086;SDS011;4086;54.412;9.980;2022-08-19T11:28:55;20.77;;;14.27;;
8086;SDS011;4086;54.412;9.980;2022-08-19T11:31:23;33.10;;;18.60;;
8086;SDS011;4086;54.412;9.980;2022-08-19T11:33:50;26.97;;;17.07;;
8086;SDS011;4086;54.412;9.980;2022-08-19T11:36:17;29.33;;;18.57;;
8086;SDS011;4086;54.412;9.980;2022-08-19T11:38:45;26.33;;;16.83;;
8086;SDS011;4086;54.412;9.980;2022-08-19T11:41:14;29.60;;;17.97;;
8086;SDS011;4086;54.412;9.980;2022-08-19T11:43:41;32.37;;;19.37;;
8086;SDS011;4086;54.412;9.980;2022-08-19T11:46:09;30.00;;;17.73;;
8086;SDS011;4086;54.412;9.980;2022-08-19T11:48:37;26.57;;;17.33;;
8086;SDS011;4086;54.412;9.980;2022-08-19T11:51:04;25.13;;;14.60;;
8086;SDS011;4086;54.412;9.980;2022-08-19T11:53:33;27.07;;;16.67;;
8086;SDS011;4086;54.412;9.980;2022-08-19T11:56:00;32.50;;;18.27;;
8086;SDS011;4086;54.412;9.980;2022-08-19T11:58:27;28.53;;;17.60;;
8086;SDS011;4086;54.412;9.980;2022-08-19T12:00:54;26.33;;;17.07;;
8086;SDS011;4086;54.412;9.980;2022-08-19T12:03:22;31.17;;;19.17;;
8086;SDS011;4086;54.412;9.980;2022-08-19T12:05:48;23.67;;;15.57;;
8086;SDS011;4086;54.412;9.980;2022-08-19T12:08:15;25.87;;;17.50;;
8086;SDS011;4086;54.412;9.980;2022-08-19T12:10:42;27.07;;;18.53;;
8086;SDS011;4086;54.412;9.980;2022-08-19T12:13:09;26.00;;;16.37;;
8086;SDS011;4086;54.412;9.980;2022-08-19T12:15:35;28.67;;;16.80;;
8086;SDS011;4086;54.412;9.980;2022-08-19T12:18:03;31.43;;;18.73;;
8086;SDS011;4086;54.412;9.980;2022-08-19T12:20:33;21.17;;;14.40;;
8086;SDS011;4086;54.412;9.980;2022-08-19T12:23:00;21.83;;;15.40;;
8086;SDS011;4086;54.412;9.980;2022-08-19T12:25:26;21.10;;;14.43;;
8086;SDS011;4086;54.412;9.980;2022-08-19T12:27:53;23.43;;;16.83;;
8086;SDS011;4086;54.412;9.980;2022-08-19T12:30:20;28.50;;;17.80;;
8086;SDS011;4086;54.412;9.980;2022-08-19T12:32:46;23.47;;;15.60;;
8086;SDS011;4086;54.412;9.980;2022-08-19T12:35:12;22.83;;;15.93;;
8086;SDS011;4086;54.412;9.980;2022-08-19T12:37:40;24.93;;;17.13;;
8086;SDS011;4086;54.412;9.980;2022-08-19T12:40:09;24.87;;;17.67;;
8086;SDS011;4086;54.412;9.980;2022-08-19T12:42:37;22.73;;;16.77;;
8086;SDS011;4086;54.412;9.980;2022-08-19T12:45:07;22.57;;;16.13;;
8086;SDS011;4086;54.412;9.980;2022-08-19T12:47:34;21.77;;;16.93;;
8086;SDS011;4086;54.412;9.980;2022-08-19T12:50:04;18.77;;;15.10;;
8086;SDS011;4086;54.412;9.980;2022-08-19T12:55:56;21.13;;;15.77;;
8086;SDS011;4086;54.412;9.980;2022-08-19T12:58:25;21.40;;;14.50;;
8086;SDS011;4086;54.412;9.980;2022-08-19T13:00:51;16.63;;;13.37;;
8086;SDS011;4086;54.412;9.980;2022-08-19T13:03:18;21.83;;;15.40;;
8086;SDS011;4086;54.412;9.980;2022-08-19T13:05:44;22.53;;;16.00;;
8086;SDS011;4086;54.412;9.980;2022-08-19T13:08:11;21.30;;;15.80;;
8086;SDS011;4086;54.412;9.980;2022-08-19T13:10:37;18.73;;;15.93;;
8086;SDS011;4086;54.412;9.980;2022-08-19T13:13:06;22.00;;;14.60;;
8086;SDS011;4086;54.412;9.980;2022-08-19T13:15:34;22.73;;;15.97;;
8086;SDS011;4086;54.412;9.980;2022-08-19T13:18:01;23.83;;;16.57;;
8086;SDS011;4086;54.412;9.980;2022-08-19T13:20:27;20.23;;;14.37;;
8086;SDS011;4086;54.412;9.980;2022-08-19T13:22:54;23.73;;;16.60;;
8086;SDS011;4086;54.412;9.980;2022-08-19T13:25:22;26.77;;;18.50;;
8086;SDS011;4086;54.412;9.980;2022-08-19T13:27:49;22.23;;;16.77;;
8086;SDS011;4086;54.412;9.980;2022-08-19T13:30:18;22.13;;;16.73;;
8086;SDS011;4086;54.412;9.980;2022-08-19T13:33:03;23.40;;;17.03;;
8086;SDS011;4086;54.412;9.980;2022-08-19T13:35:41;25.87;;;17.47;;
8086;SDS011;4086;54.412;9.980;2022-08-19T13:38:08;21.43;;;15.07;;
8086;SDS011;4086;54.412;9.980;2022-08-19T13:40:35;26.67;;;17.90;;
8086;SDS011;4086;54.412;9.980;2022-08-19T13:43:03;18.47;;;14.23;;
8086;SDS011;4086;54.412;9.980;2022-08-19T13:45:32;22.80;;;16.67;;
8086;SDS011;4086;54.412;9.980;2022-08-19T13:47:59;21.80;;;15.43;;
8086;SDS011;4086;54.412;9.980;2022-08-19T13:50:30;16.20;;;12.23;;
8086;SDS011;4086;54.412;9.980;2022-08-19T13:52:57;23.33;;;17.67;;
8086;SDS011;4086;54.412;9.980;2022-08-19T13:55:23;20.17;;;16.20;;
8086;SDS011;4086;54.412;9.980;2022-08-19T13:57:51;21.03;;;16.57;;
8086;SDS011;4086;54.412;9.980;2022-08-19T14:00:18;20.80;;;16.13;;
8086;SDS011;4086;54.412;9.980;2022-08-19T14:02:48;18.83;;;14.33;;
8086;SDS011;4086;54.412;9.980;2022-08-19T14:05:17;16.87;;;13.13;;
8086;SDS011;4086;54.412;9.980;2022-08-19T14:07:45;20.80;;;16.20;;
8086;SDS011;4086;54.412;9.980;2022-08-19T14:10:12;15.33;;;13.00;;
8086;SDS011;4086;54.412;9.980;2022-08-19T14:12:39;18.53;;;15.40;;
8086;SDS011;4086;54.412;9.980;2022-08-19T14:15:06;17.60;;;14.20;;
8086;SDS011;4086;54.412;9.980;2022-08-19T14:17:34;13.73;;;12.23;;
8086;SDS011;4086;54.412;9.980;2022-08-19T14:20:05;15.73;;;12.60;;
8086;SDS011;4086;54.412;9.980;2022-08-19T14:22:34;16.77;;;14.20;;
8086;SDS011;4086;54.412;9.980;2022-08-19T14:25:01;16.90;;;14.30;;
8086;SDS011;4086;54.412;9.980;2022-08-19T14:27:29;19.53;;;14.47;;
8086;SDS011;4086;54.412;9.980;2022-08-19T14:29:55;16.63;;;13.33;;
8086;SDS011;4086;54.412;9.980;2022-08-19T14:32:21;15.70;;;12.43;;
8086;SDS011;4086;54.412;9.980;2022-08-19T14:34:51;12.50;;;10.73;;
8086;SDS011;4086;54.412;9.980;2022-08-19T14:37:19;15.20;;;13.60;;
8086;SDS011;4086;54.412;9.980;2022-08-19T14:39:46;13.37;;;12.00;;
8086;SDS011;4086;54.412;9.980;2022-08-19T14:42:12;15.60;;;12.73;;
8086;SDS011;4086;54.412;9.980;2022-08-19T14:44:39;14.13;;;11.67;;
8086;SDS011;4086;54.412;9.980;2022-08-19T14:47:06;15.50;;;13.37;;
8086;SDS011;4086;54.412;9.980;2022-08-19T14:49:33;15.23;;;12.67;;
8086;SDS011;4086;54.412;9.980;2022-08-19T14:52:00;12.87;;;11.47;;
8086;SDS011;4086;54.412;9.980;2022-08-19T14:54:29;14.47;;;11.73;;
8086;SDS011;4086;54.412;9.980;2022-08-19T14:56:56;20.10;;;15.83;;
8086;SDS011;4086;54.412;9.980;2022-08-19T14:59:22;16.77;;;14.17;;
8086;SDS011;4086;54.412;9.980;2022-08-19T15:01:49;17.67;;;14.10;;
8086;SDS011;4086;54.412;9.980;2022-08-19T15:04:15;13.80;;;11.10;;